GW3137 Weather Reports


Display with metric or nautical units.
time (UTC)temp
F
wind
direction
speed
MPH
gust
MPH
rain 1hr
in
rain 24hr
in
rain mn
in
humidity
%
barometer
mb
20240228181704 50 170 7.0 20.0 0.02 0.29 0.18 83 1005.9
20240228181203 49 145 10.0 22.0 0.02 0.29 0.18 83 1005.9
20240228180704 49 158 6.0 14.0 0.02 0.29 0.18 84 1005.9
20240228180203 49 163 9.0 16.0 0.02 0.29 0.18 85 1006.1
20240228174704 49 174 5.0 12.0 0.03 0.31 0.18 85 1006.3
20240228174204 49 182 6.0 14.0 0.03 0.31 0.18 85 1006.4
20240228173703 49 173 9.0 17.0 0.02 0.30 0.17 85 1006.5
20240228171702 49 179 6.0 12.0 0.02 0.29 0.16 84 1006.5
20240228171202 49 176 6.0 17.0 0.02 0.29 0.16 83 1006.6
20240228170702 49 166 7.0 15.0 0.02 0.29 0.16 83 1006.5
20240228164202 50 174 8.0 15.0 0.01 0.28 0.15 81 1006.5
20240228163702 50 165 7.0 18.0 0.01 0.28 0.15 80 1006.6
20240228161702 51 185 10.0 20.0 0.00 0.27 0.14 76 1006.4
20240228160703 50 164 7.0 20.0 0.00 0.27 0.14 76 1006.2
20240228160202 50 171 11.0 21.0 0.00 0.27 0.14 76 1006.3
20240228154703 50 160 7.0 17.0 0.00 0.27 0.14 78 1006.4
20240228154203 50 173 7.0 15.0 0.00 0.27 0.14 78 1006.5
20240228153702 50 143 7.0 15.0 0.00 0.27 0.14 78 1006.4
20240228151703 50 174 7.0 20.0 0.00 0.27 0.14 79 1006.9
20240228151202 50 159 9.0 20.0 0.00 0.27 0.14 79 1007.0
20240228150203 49 146 10.0 25.0 0.01 0.27 0.14 79 1007.0
20240228144702 49 149 11.0 17.0 0.01 0.27 0.14 79 1007.2
20240228144203 49 159 9.0 16.0 0.02 0.27 0.14 80 1007.2
20240228143702 49 151 9.0 22.0 0.02 0.27 0.14 80 1007.1
20240228143202 49 165 10.0 18.0 0.02 0.27 0.14 81 1007.1
20240228141703 48 150 7.0 15.0 0.02 0.27 0.14 83 1007.3
20240228141203 48 147 10.0 20.0 0.03 0.27 0.14 84 1007.3
20240228140702 48 112 7.0 16.0 0.03 0.27 0.14 84 1007.3
20240228140203 48 163 9.0 21.0 0.02 0.26 0.13 84 1007.4
20240228134202 47 144 8.0 17.0 0.04 0.25 0.12 86 1007.5
20240228133703 47 141 7.0 14.0 0.04 0.25 0.12 86 1007.5
20240228133202 47 147 9.0 18.0 0.05 0.25 0.12 87 1007.6
20240228131202 46 154 6.0 13.0 0.07 0.24 0.11 88 1007.9
20240228130702 46 135 6.0 13.0 0.08 0.24 0.11 88 1007.9
20240228130203 46 148 6.0 17.0 0.08 0.24 0.11 87 1008.0
20240228124202 46 155 7.0 17.0 0.07 0.21 0.08 87 1007.9
20240228123202 46 133 7.0 20.0 0.06 0.20 0.07 87 1008.2
20240228121202 47 142 8.0 16.0 0.04 0.17 0.04 85 1008.5
20240228120703 47 134 7.0 12.0 0.03 0.16 0.03 85 1008.5
20240228120203 46 144 9.0 20.0 0.03 0.16 0.03 85 1008.6
20240228114702 47 162 9.0 16.0 0.02 0.15 0.02 84 1008.9
20240228114204 47 168 9.0 20.0 0.01 0.14 0.01 83 1009.0
20240228113702 47 168 9.0 16.0 0.01 0.14 0.01 83 1009.1
20240228113203 47 161 12.0 21.0 0.01 0.14 0.01 82 1009.2
20240228111702 47 168 8.0 20.0 0.00 0.13 0.00 82 1009.1
20240228111203 47 162 12.0 21.0 0.00 0.13 0.00 82 1009.1
20240228110703 47 175 10.0 17.0 0.00 0.13 0.00 82 1009.2
20240228110202 46 168 7.0 21.0 0.00 0.13 0.00 82 1009.3
20240228104703 47 173 8.0 18.0 0.00 0.13 0.00 81 1009.4
20240228104203 47 152 9.0 18.0 0.00 0.13 0.00 81 1009.4
20240228103202 47 160 10.0 24.0 0.00 0.13 0.00 80 1009.7
20240228101703 47 155 6.0 12.0 0.00 0.13 0.00 80 1010.0
20240228101202 47 169 6.0 13.0 0.00 0.13 0.00 79 1010.1
20240228100702 47 165 6.0 16.0 0.00 0.13 0.00 79 1010.1
20240228100202 47 168 9.0 18.0 0.00 0.13 0.00 78 1010.0
20240228094702 47 173 6.0 10.0 0.00 0.13 0.00 77 1010.1
20240228094203 47 141 5.0 14.0 0.00 0.13 0.00 77 1010.2
20240228093203 47 159 6.0 14.0 0.00 0.13 0.00 77 1010.2
20240228091703 47 161 6.0 12.0 0.00 0.13 0.00 77 1010.3
20240228091202 47 166 6.0 13.0 0.00 0.13 0.00 77 1010.3
20240228090703 47 147 7.0 15.0 0.00 0.13 0.00 77 1010.4
20240228090203 47 173 7.0 15.0 0.00 0.13 0.00 77 1010.4
20240228084703 47 173 6.0 12.0 0.00 0.13 0.00 76 1010.6
20240228084202 47 178 6.0 12.0 0.00 0.13 0.00 77 1010.7
20240228083703 47 179 6.0 14.0 0.00 0.13 0.00 76 1010.7
20240228083203 47 167 7.0 16.0 0.00 0.13 0.00 77 1010.7
20240228081704 47 161 7.0 18.0 0.00 0.13 0.00 77 1010.9
20240228081202 47 172 7.0 15.0 0.00 0.13 0.00 77 1010.9
20240228080203 47 168 8.0 20.0 0.00 0.13 0.00 77 1011.1
20240228073703 47 172 10.0 17.0 0.00 0.13 0.13 76 1011.4
20240228073203 47 170 6.0 20.0 0.00 0.13 0.13 77 1011.4
20240228071203 47 167 6.0 10.0 0.00 0.13 0.13 76 1011.6
20240228070703 47 172 5.0 9.0 0.00 0.13 0.13 76 1011.6
20240228070203 47 168 3.0 13.0 0.00 0.13 0.13 77 1011.6
20240228064703 47 156 9.0 14.0 0.00 0.13 0.13 76 1011.7
20240228063703 47 169 10.0 20.0 0.00 0.13 0.13 76 1011.8
20240228063203 47 183 7.0 17.0 0.00 0.13 0.13 76 1011.9
20240228061203 47 161 5.0 10.0 0.00 0.13 0.13 76 1012.1
20240228060703 47 171 9.0 15.0 0.00 0.13 0.13 76 1012.1
20240228060203 47 175 7.0 20.0 0.00 0.13 0.13 76 1012.1
20240228054703 47 161 7.0 13.0 0.00 0.13 0.13 77 1012.2
20240228054203 47 171 4.0 12.0 0.00 0.13 0.13 77 1012.2
20240228053704 46 174 6.0 12.0 0.00 0.13 0.13 77 1012.3
20240228053204 46 157 4.0 17.0 0.00 0.13 0.13 77 1012.4
20240228051704 46 171 4.0 10.0 0.00 0.13 0.13 77 1012.5
20240228051203 47 173 6.0 12.0 0.00 0.13 0.13 76 1012.4
20240228050703 47 173 6.0 12.0 0.00 0.13 0.13 76 1012.5
20240228050203 47 166 6.0 15.0 0.00 0.13 0.13 75 1012.5
20240228044703 46 179 6.0 13.0 0.00 0.13 0.13 76 1012.5
20240228044203 46 168 6.0 14.0 0.00 0.13 0.13 78 1012.4
20240228043703 46 166 7.0 13.0 0.00 0.13 0.13 78 1012.5
20240228043203 46 162 6.0 15.0 0.00 0.13 0.13 78 1012.5
20240228041703 44 145 4.0 9.0 0.00 0.13 0.13 83 1012.5
20240228041203 44 150 5.0 9.0 0.00 0.13 0.13 83 1012.6
20240228040703 43 127 4.0 10.0 0.00 0.13 0.13 84 1012.8
20240228034203 42 111 3.0 9.0 0.00 0.13 0.13 87 1013.2
20240228033703 42 118 3.0 9.0 0.01 0.13 0.13 88 1013.2
20240228033203 42 122 3.0 8.0 0.01 0.13 0.13 88 1013.4
20240228031704 42 94 3.0 6.0 0.01 0.13 0.13 88 1013.7
20240228031203 42 99 3.0 5.0 0.01 0.13 0.13 88 1013.9
20240228030703 42 99 3.0 7.0 0.01 0.14 0.13 88 1014.0
20240228030204 42 90 3.0 3.0 0.01 0.14 0.13 88 1014.1
20240228024703 42 112 2.0 3.0 0.01 0.14 0.13 88 1014.3
20240228024203 42 83 2.0 3.0 0.01 0.14 0.13 88 1014.3
20240228023704 42 110 2.0 3.0 0.00 0.13 0.12 88 1014.5
20240228021704 41 115 3.0 5.0 0.00 0.13 0.12 88 1014.7
20240228021203 41 114 3.0 8.0 0.00 0.13 0.12 88 1014.7
20240228020704 41 113 2.0 3.0 0.00 0.13 0.12 88 1014.8
20240228020203 41 106 2.0 6.0 0.00 0.13 0.12 88 1014.9
20240228014703 41 117 3.0 5.0 0.00 0.13 0.12 88 1015.1
20240228014204 41 111 2.0 5.0 0.00 0.13 0.12 88 1015.1
20240228013203 41 103 3.0 6.0 0.00 0.13 0.12 88 1015.4
20240228011703 41 103 3.0 3.0 0.00 0.15 0.12 88 1015.7
20240228011203 41 113 3.0 6.0 0.00 0.16 0.12 88 1015.8
20240228010203 41 106 2.0 9.0 0.00 0.17 0.12 89 1015.9
20240228003704 41 105 3.0 8.0 0.00 0.18 0.12 89 1016.3
20240228003204 41 102 4.0 8.0 0.00 0.18 0.12 89 1016.4
20240228001704 41 110 3.0 8.0 0.00 0.18 0.12 88 1016.6
20240228001203 42 95 4.0 10.0 0.00 0.18 0.12 88 1016.7
20240228000703 42 105 3.0 7.0 0.00 0.18 0.12 88 1016.8
20240228000204 42 126 2.0 7.0 0.00 0.18 0.12 88 1016.9
20240227234705 42 97 2.0 7.0 0.00 0.18 0.12 87 1017.2
20240227234203 42 114 2.0 3.0 0.00 0.18 0.12 88 1017.3
20240227233206 42 116 3.0 8.0 0.00 0.18 0.12 87 1017.4
20240227231704 42 125 4.0 9.0 0.01 0.18 0.12 87 1017.6
20240227224704 42 130 3.0 5.0 0.02 0.18 0.12 88 1018.0
20240227224204 41 113 1.0 3.0 0.02 0.18 0.12 88 1018.1
20240227223703 41 152 3.0 6.0 0.03 0.18 0.12 88 1018.2
20240227221704 41 109 3.0 6.0 0.03 0.17 0.11 88 1018.4
20240227221203 41 118 3.0 8.0 0.03 0.17 0.11 88 1018.5
20240227220703 41 108 4.0 8.0 0.04 0.17 0.11 88 1018.6
20240227220203 40 142 2.0 5.0 0.04 0.17 0.11 88 1018.7
20240227214705 40 126 2.0 3.0 0.04 0.16 0.10 88 1018.9
20240227214204 40 99 2.0 5.0 0.04 0.16 0.10 88 1018.9
20240227213204 40 126 2.0 7.0 0.04 0.15 0.09 87 1019.0
20240227211705 40 136 3.0 7.0 0.03 0.14 0.08 87 1019.2
20240227211203 40 96 3.0 8.0 0.03 0.14 0.08 86 1019.2
20240227210704 40 132 3.0 7.0 0.02 0.13 0.07 85 1019.3
20240227210205 40 139 3.0 7.0 0.02 0.13 0.07 85 1019.3
20240227204704 41 118 3.0 7.0 0.02 0.12 0.06 83 1019.4
20240227204203 41 118 3.0 7.0 0.02 0.12 0.06 82 1019.4
20240227203704 41 102 2.0 7.0 0.01 0.11 0.05 81 1019.4
20240227203204 41 134 4.0 8.0 0.01 0.11 0.05 79 1019.5
20240227201704 41 112 2.0 6.0 0.01 0.11 0.05 78 1019.5
20240227201204 41 110 2.0 6.0 0.01 0.11 0.05 79 1019.6
20240227200704 41 126 2.0 3.0 0.01 0.11 0.05 79 1019.6
20240227200204 41 112 2.0 7.0 0.01 0.11 0.05 79 1019.6
20240227194704 41 88 3.0 3.0 0.01 0.10 0.04 79 1019.7